createdAt,value
2023-05-05T05:03:22.808Z,25.00
2023-05-05T05:04:23.612Z,25.00
2023-05-05T05:05:23.672Z,25.00
2023-05-05T05:06:23.787Z,25.00
2023-05-05T05:07:22.717Z,25.00
2023-05-05T05:08:22.803Z,25.00
2023-05-05T05:09:23.749Z,0.00
2023-05-05T05:10:22.967Z,0.00
2023-05-05T05:11:23.484Z,0.00
2023-05-05T05:12:23.004Z,0.00
2023-05-05T05:13:24.203Z,0.00
2023-05-05T05:14:23.274Z,0.00
2023-05-05T05:15:24.012Z,0.00
2023-05-05T05:16:24.255Z,0.00
2023-05-05T05:17:23.101Z,0.00
2023-05-05T05:18:23.216Z,0.00
2023-05-05T05:19:23.248Z,0.00
2023-05-05T05:20:23.243Z,0.00
2023-05-05T05:21:23.310Z,0.00
2023-05-05T05:22:23.351Z,0.00
2023-05-05T05:23:23.334Z,0.00
2023-05-05T05:24:24.480Z,0.00
2023-05-05T05:25:24.170Z,0.00
2023-05-05T05:27:42.592Z,25.00
2023-05-05T05:28:44.203Z,25.00
2023-05-05T05:29:43.548Z,25.00
2023-05-05T05:30:43.527Z,25.00
2023-05-05T05:31:42.711Z,25.00
2023-05-05T05:32:42.671Z,27.68
2023-05-05T05:33:42.568Z,25.46
2023-05-05T05:34:42.574Z,30.08
2023-05-05T05:35:42.586Z,29.25
2023-05-05T05:36:42.551Z,29.17
2023-05-05T05:37:42.550Z,145.88
2023-05-05T05:38:43.502Z,99.92
2023-05-05T05:39:43.870Z,63.58
2023-05-05T05:40:43.509Z,82.95
2023-05-05T05:41:42.446Z,75.15
2023-05-05T05:42:42.496Z,54.51
2023-05-05T05:43:42.418Z,53.92
2023-05-05T05:44:42.493Z,87.09
2023-05-05T05:45:42.515Z,68.23
2023-05-05T05:46:42.637Z,84.68
2023-05-05T05:47:42.567Z,162.42
2023-05-05T05:48:42.580Z,273.19
2023-05-05T05:49:42.622Z,276.63
2023-05-05T05:50:42.638Z,242.53
2023-05-05T05:51:43.671Z,223.17
2023-05-05T05:52:43.696Z,199.07
2023-05-05T05:53:42.774Z,189.36
2023-05-05T05:54:42.824Z,175.30
2023-05-05T05:55:42.836Z,176.25
2023-05-05T05:56:42.946Z,140.14
2023-05-05T05:57:43.944Z,126.33
2023-05-05T05:58:42.941Z,101.97
2023-05-05T05:59:42.960Z,77.85
2023-05-05T06:00:42.998Z,61.39
2023-05-05T06:01:43.264Z,66.93
2023-05-05T06:02:44.270Z,73.25
2023-05-05T06:03:43.333Z,39.67
2023-05-05T06:04:43.346Z,30.50
2023-05-05T06:05:44.344Z,25.00
2023-05-05T06:06:44.431Z,23.55
2023-05-05T06:07:43.413Z,25.00
2023-05-05T06:08:43.408Z,30.55
2023-05-05T06:09:44.470Z,32.69
2023-05-05T06:10:43.553Z,30.32
2023-05-05T06:11:43.615Z,25.55
2023-05-05T06:12:44.618Z,26.21
2023-05-05T06:13:43.612Z,28.35
2023-05-05T06:14:43.689Z,25.00
2023-05-05T06:15:43.808Z,24.11
2023-05-05T06:16:43.638Z,27.17
2023-05-05T06:17:44.674Z,27.80
2023-05-05T06:18:43.705Z,33.66
2023-05-05T06:19:44.729Z,37.23
2023-05-05T06:20:43.723Z,28.14
2023-05-05T06:21:43.760Z,25.86
2023-05-05T06:22:43.820Z,26.78
2023-05-05T06:23:43.884Z,34.31
2023-05-05T06:24:43.925Z,35.64
2023-05-05T06:25:44.048Z,25.00
2023-05-05T06:26:44.132Z,30.39
2023-05-05T06:27:44.120Z,48.73
2023-05-05T06:28:45.143Z,60.78
2023-05-05T06:29:44.099Z,48.19
2023-05-05T06:30:45.223Z,25.66
2023-05-05T06:31:44.197Z,29.59
2023-05-05T06:32:45.335Z,27.59
2023-05-05T06:33:44.255Z,26.57
2023-05-05T06:34:45.386Z,25.00
2023-05-05T06:35:45.347Z,25.78
2023-05-05T06:36:44.352Z,25.13
2023-05-05T06:37:45.355Z,28.76
2023-05-05T06:38:45.344Z,33.56
2023-05-05T06:39:44.417Z,31.19
2023-05-05T06:40:45.443Z,34.74
2023-05-05T06:41:44.466Z,25.00
2023-05-05T06:42:44.498Z,26.23
2023-05-05T06:43:44.490Z,27.91
2023-05-05T06:44:44.475Z,25.00
2023-05-05T06:45:45.535Z,26.17
2023-05-05T06:46:45.699Z,25.98
2023-05-05T06:47:44.668Z,35.37
2023-05-05T06:48:44.623Z,38.07
2023-05-05T06:49:44.616Z,46.90
2023-05-05T06:50:45.713Z,50.92
2023-05-05T06:51:44.704Z,59.19
2023-05-05T06:52:44.726Z,60.46
2023-05-05T06:53:44.859Z,64.16
2023-05-05T06:54:45.764Z,71.80
2023-05-05T06:55:45.843Z,72.99
2023-05-05T06:56:46.321Z,73.39
2023-05-05T06:57:45.040Z,63.66
2023-05-05T06:58:46.011Z,54.82
2023-05-05T06:59:45.096Z,59.81
2023-05-05T07:00:45.143Z,61.86
2023-05-05T07:01:45.029Z,58.75
2023-05-05T07:02:46.161Z,61.72
2023-05-05T07:03:45.097Z,61.19
2023-05-05T07:04:45.014Z,63.07
2023-05-05T07:05:46.051Z,61.98
2023-05-05T07:06:45.043Z,65.97
2023-05-05T07:07:45.092Z,69.45
2023-05-05T07:08:45.080Z,71.85
2023-05-05T07:09:46.313Z,75.19
2023-05-05T07:10:45.196Z,76.36
2023-05-05T07:11:46.248Z,69.92
2023-05-05T07:12:45.434Z,75.49
2023-05-05T07:13:45.381Z,78.67
2023-05-05T07:14:45.466Z,76.50
2023-05-05T07:15:45.509Z,77.14
2023-05-05T07:16:45.641Z,77.72
2023-05-05T07:17:45.688Z,80.29
2023-05-05T07:18:45.647Z,82.67
2023-05-05T07:19:46.770Z,84.23
2023-05-05T07:20:45.740Z,83.32
2023-05-05T07:21:46.796Z,87.67
2023-05-05T07:22:46.874Z,89.85
2023-05-05T07:23:46.889Z,87.21
2023-05-05T07:24:45.941Z,94.93
2023-05-05T07:25:46.074Z,93.66
2023-05-05T07:26:47.052Z,91.90
2023-05-05T07:27:46.120Z,91.70
2023-05-05T07:28:46.173Z,88.56
2023-05-05T07:29:46.110Z,91.09
2023-05-05T07:30:46.209Z,95.47
2023-05-05T07:31:46.279Z,92.57
2023-05-05T07:32:46.417Z,69.96
2023-05-05T07:33:47.302Z,58.46
2023-05-05T07:34:46.342Z,61.26
2023-05-05T07:35:46.422Z,66.79
2023-05-05T07:36:46.493Z,67.99
2023-05-05T07:37:46.535Z,64.47
2023-05-05T07:38:47.652Z,60.89
2023-05-05T07:39:46.673Z,61.37
2023-05-05T07:40:46.717Z,62.36
2023-05-05T07:41:46.946Z,45.00
2023-05-05T07:42:46.948Z,42.51
2023-05-05T07:43:46.902Z,57.24
2023-05-05T07:44:48.166Z,62.14
2023-05-05T07:45:48.079Z,64.63
2023-05-05T07:46:47.075Z,68.18
2023-05-05T07:47:47.355Z,67.77
2023-05-05T07:48:47.181Z,64.97
2023-05-05T07:49:47.209Z,66.56
2023-05-05T07:50:48.239Z,76.43
2023-05-05T07:51:48.259Z,78.44
2023-05-05T07:52:51.865Z,78.61
2023-05-05T07:53:48.320Z,78.80
2023-05-05T07:54:47.293Z,77.06
2023-05-05T07:55:47.288Z,73.87
2023-05-05T07:56:47.353Z,79.08
2023-05-05T07:57:47.650Z,76.47
2023-05-05T07:58:47.470Z,77.58
2023-05-05T07:59:47.405Z,85.83
2023-05-05T08:00:47.386Z,82.46
2023-05-05T08:01:47.407Z,88.55
2023-05-05T08:02:47.464Z,90.79
2023-05-05T08:03:47.470Z,94.38
2023-05-05T08:04:47.429Z,97.30
2023-05-05T08:05:50.546Z,95.23
2023-05-05T08:06:48.374Z,95.28
2023-05-05T08:07:47.340Z,94.87
2023-05-05T08:08:47.328Z,94.17
2023-05-05T08:09:48.362Z,95.51
2023-05-05T08:10:48.304Z,99.01
2023-05-05T08:11:48.320Z,94.07
2023-05-05T08:12:48.408Z,95.68
2023-05-05T08:13:47.476Z,97.47
2023-05-05T08:14:47.314Z,98.17
2023-05-05T08:15:47.321Z,100.11
2023-05-05T08:16:47.318Z,99.60
2023-05-05T08:17:48.352Z,100.31
2023-05-05T08:18:48.316Z,96.48
2023-05-05T08:19:47.299Z,96.28
2023-05-05T08:20:47.264Z,100.43
2023-05-05T08:21:47.229Z,104.22
2023-05-05T08:22:48.385Z,98.13
2023-05-05T08:23:48.278Z,97.85
2023-05-05T08:24:47.254Z,100.27
2023-05-05T08:25:48.393Z,100.02
2023-05-05T08:26:47.355Z,103.70
2023-05-05T08:27:47.560Z,105.95
2023-05-05T08:28:47.508Z,103.18
2023-05-05T08:29:48.721Z,104.96
2023-05-05T08:30:47.611Z,104.34
2023-05-05T08:31:48.746Z,102.87
2023-05-05T08:32:48.786Z,110.27
2023-05-05T08:33:47.722Z,108.11
2023-05-05T08:34:47.763Z,109.10
2023-05-05T08:35:48.877Z,105.88
2023-05-05T08:36:47.953Z,105.68
2023-05-05T08:37:47.921Z,105.52
2023-05-05T08:38:48.976Z,107.75
2023-05-05T08:39:49.010Z,103.69
2023-05-05T08:40:49.110Z,105.00
2023-05-05T08:41:49.129Z,104.44
2023-05-05T08:42:48.218Z,105.19
2023-05-05T08:43:49.367Z,105.48
2023-05-05T08:44:48.266Z,107.69
2023-05-05T08:45:49.329Z,103.34
2023-05-05T08:46:49.381Z,104.90
2023-05-05T08:47:48.429Z,108.84
2023-05-05T08:48:48.418Z,107.49
2023-05-05T08:49:48.426Z,104.56
2023-05-05T08:50:48.423Z,102.60
2023-05-05T08:51:48.480Z,107.75
2023-05-05T08:52:50.646Z,107.91
2023-05-05T08:53:48.621Z,105.30
2023-05-05T08:54:48.472Z,103.79
2023-05-05T08:55:48.437Z,100.77
2023-05-05T08:56:48.425Z,103.19
2023-05-05T08:57:48.485Z,106.49
2023-05-05T08:58:48.920Z,106.58
2023-05-05T08:59:48.495Z,106.83
2023-05-05T09:00:48.483Z,105.64
2023-05-05T09:01:48.599Z,111.66
2023-05-05T09:02:48.541Z,106.06
2023-05-05T09:03:48.412Z,110.44
2023-05-05T09:04:48.390Z,108.77
2023-05-05T09:05:48.373Z,106.31
2023-05-05T09:06:49.424Z,108.84
2023-05-05T09:07:48.380Z,109.62
2023-05-05T09:08:48.408Z,109.08
2023-05-05T09:09:48.345Z,110.95
2023-05-05T09:10:49.422Z,111.31
2023-05-05T09:11:48.413Z,107.83
2023-05-05T09:12:48.343Z,112.51
2023-05-05T09:13:48.400Z,108.40
2023-05-05T09:14:48.330Z,107.06
2023-05-05T09:15:49.411Z,109.37
2023-05-05T09:16:49.330Z,108.33
2023-05-05T09:17:48.697Z,111.22
2023-05-05T09:18:48.372Z,108.21
2023-05-05T09:19:48.311Z,111.20
2023-05-05T09:20:48.238Z,110.34
2023-05-05T09:21:48.233Z,108.66
2023-05-05T09:22:49.263Z,113.81
2023-05-05T09:23:48.348Z,106.42
2023-05-05T09:24:48.268Z,110.70
2023-05-05T09:25:49.219Z,109.56
2023-05-05T09:26:49.239Z,110.06
2023-05-05T09:27:48.198Z,105.70
2023-05-05T09:28:48.244Z,107.15
2023-05-05T09:29:48.180Z,108.30
2023-05-05T09:30:48.211Z,109.89
2023-05-05T09:31:48.211Z,110.45
2023-05-05T09:32:49.298Z,105.69
2023-05-05T09:33:49.294Z,108.33
2023-05-05T09:34:48.164Z,103.82
2023-05-05T09:35:49.254Z,61.34
2023-05-05T09:36:48.222Z,72.68
2023-05-05T09:37:48.162Z,92.99
2023-05-05T09:38:48.137Z,80.15
2023-05-05T09:39:49.107Z,82.79
2023-05-05T09:40:48.173Z,81.27
2023-05-05T09:41:48.157Z,78.61
2023-05-05T09:42:48.119Z,77.42
2023-05-05T09:43:49.150Z,84.84
2023-05-05T09:44:48.117Z,82.54
2023-05-05T09:45:48.137Z,81.42
2023-05-05T09:46:48.249Z,81.98
2023-05-05T09:47:49.338Z,83.98
2023-05-05T09:48:49.437Z,82.97
2023-05-05T09:49:48.295Z,82.63
2023-05-05T09:50:48.213Z,88.71
2023-05-05T09:51:49.120Z,86.82
2023-05-05T09:52:48.170Z,74.15
2023-05-05T09:53:49.321Z,70.63
2023-05-05T09:54:48.081Z,66.21
2023-05-05T09:55:49.060Z,44.69
2023-05-05T09:56:48.006Z,54.31
2023-05-05T09:57:48.093Z,60.44
2023-05-05T09:58:49.077Z,35.49
2023-05-05T09:59:49.006Z,31.49
2023-05-05T10:00:48.027Z,53.23
2023-05-05T10:01:48.077Z,53.03
2023-05-05T10:02:48.058Z,52.98
2023-05-05T10:03:47.957Z,50.07
2023-05-05T10:04:49.032Z,31.34
2023-05-05T10:05:48.027Z,25.00
2023-05-05T10:06:47.933Z,45.44
2023-05-05T10:07:48.047Z,47.42
2023-05-05T10:08:47.934Z,20.92
2023-05-05T10:09:47.923Z,31.04
2023-05-05T10:10:47.902Z,22.04
2023-05-05T10:11:47.970Z,26.33
2023-05-05T10:12:48.898Z,24.71
2023-05-05T10:13:48.887Z,35.66
2023-05-05T10:14:47.877Z,35.25
2023-05-05T10:15:49.008Z,33.00
2023-05-05T10:16:48.931Z,42.93
2023-05-05T10:17:57.868Z,51.45
2023-05-05T10:18:48.912Z,43.88
2023-05-05T10:19:47.906Z,35.77
2023-05-05T10:20:47.910Z,33.55
2023-05-05T10:21:48.059Z,38.30
2023-05-05T10:22:47.902Z,28.01
2023-05-05T10:23:47.859Z,29.79
2023-05-05T10:24:47.886Z,31.11
2023-05-05T10:25:47.864Z,44.35
2023-05-05T10:26:47.880Z,40.53
2023-05-05T10:27:47.869Z,45.30
2023-05-05T10:28:47.851Z,59.36
2023-05-05T10:29:48.791Z,33.26
2023-05-05T10:30:47.776Z,23.12
2023-05-05T10:31:47.824Z,25.00
2023-05-05T10:32:59.283Z,33.63
2023-05-05T10:33:48.994Z,29.43
2023-05-05T10:34:48.880Z,35.04
2023-05-05T10:35:48.879Z,39.01
2023-05-05T10:36:47.846Z,36.25
2023-05-05T10:37:47.972Z,44.44
2023-05-05T10:38:47.851Z,50.45
2023-05-05T10:39:47.909Z,51.13
2023-05-05T10:40:47.781Z,32.17
2023-05-05T10:41:47.856Z,42.24
2023-05-05T10:42:47.791Z,55.10
2023-05-05T10:43:48.859Z,69.23
2023-05-05T10:44:47.924Z,55.00
2023-05-05T10:45:47.856Z,59.78
2023-05-05T10:46:47.814Z,70.47
2023-05-05T10:47:47.832Z,75.01
2023-05-05T10:48:48.778Z,81.75
2023-05-05T10:49:47.796Z,84.13
2023-05-05T10:50:47.746Z,93.11
2023-05-05T10:51:47.709Z,80.75
2023-05-05T10:52:47.731Z,76.55
2023-05-05T10:53:47.905Z,84.89
2023-05-05T10:54:47.694Z,85.26
2023-05-05T10:55:48.705Z,69.37
2023-05-05T10:56:48.722Z,65.42
2023-05-05T10:57:47.659Z,69.02
2023-05-05T10:58:59.596Z,56.82
2023-05-05T10:59:48.752Z,57.24
2023-05-05T11:00:47.689Z,54.28
2023-05-05T11:01:47.655Z,53.48
2023-05-05T11:02:47.785Z,59.70
2023-05-05T11:03:47.732Z,63.44
2023-05-05T11:04:47.739Z,81.75
2023-05-05T11:05:47.679Z,83.12
2023-05-05T11:06:47.650Z,89.63
2023-05-05T11:07:48.722Z,92.39
2023-05-05T11:08:47.619Z,59.43
2023-05-05T11:09:48.730Z,44.69
2023-05-05T11:10:47.658Z,60.03
2023-05-05T11:11:48.596Z,72.15
2023-05-05T11:12:48.592Z,68.69
2023-05-05T11:13:47.592Z,65.27
2023-05-05T11:14:47.616Z,67.09
2023-05-05T11:15:47.625Z,56.50
2023-05-05T11:16:47.668Z,71.90
2023-05-05T11:17:47.708Z,73.56
2023-05-05T11:18:47.517Z,72.25
2023-05-05T11:19:48.750Z,70.25
2023-05-05T11:20:47.512Z,81.77
2023-05-05T11:21:48.564Z,73.73
2023-05-05T11:22:47.548Z,58.19
2023-05-05T11:23:47.512Z,56.35
2023-05-05T11:24:48.568Z,55.34
2023-05-05T11:25:48.596Z,52.29
2023-05-05T11:26:48.496Z,68.94
2023-05-05T11:27:47.460Z,82.80
2023-05-05T11:28:47.493Z,57.96
2023-05-05T11:29:50.299Z,70.99
2023-05-05T11:30:48.565Z,71.11
2023-05-05T11:31:48.548Z,57.62
2023-05-05T11:32:47.579Z,73.23
2023-05-05T11:33:47.535Z,68.16
2023-05-05T11:34:47.484Z,62.28
2023-05-05T11:35:47.488Z,61.05
2023-05-05T11:36:47.508Z,49.48
2023-05-05T11:37:48.508Z,50.28
2023-05-05T11:38:47.488Z,56.35
2023-05-05T11:39:48.930Z,78.28
2023-05-05T11:40:48.532Z,63.86
2023-05-05T11:41:48.519Z,46.64
2023-05-05T11:42:47.503Z,52.36
2023-05-05T11:43:48.508Z,44.44
2023-05-05T11:44:47.503Z,44.80
2023-05-05T11:45:47.429Z,45.97
2023-05-05T11:46:47.466Z,32.75
2023-05-05T11:47:47.490Z,38.68
2023-05-05T11:48:47.400Z,28.93
2023-05-05T11:49:47.408Z,34.73
2023-05-05T11:50:48.480Z,22.59
2023-05-05T11:51:47.384Z,33.65
2023-05-05T11:52:48.408Z,47.38
2023-05-05T11:53:47.468Z,35.53
2023-05-05T11:54:48.372Z,25.28
2023-05-05T11:55:48.340Z,25.00
2023-05-05T11:56:47.405Z,42.80
2023-05-05T11:57:47.429Z,47.84
2023-05-05T11:58:47.426Z,53.79
2023-05-05T11:59:49.418Z,36.33
2023-05-05T12:00:48.420Z,28.07
2023-05-05T12:01:47.382Z,32.92
2023-05-05T12:02:47.477Z,47.41
2023-05-05T12:03:47.543Z,38.56
2023-05-05T12:04:47.597Z,40.62
2023-05-05T12:05:47.472Z,48.59
2023-05-05T12:06:48.594Z,40.61
2023-05-05T12:07:47.572Z,27.81
2023-05-05T12:08:48.608Z,29.57
2023-05-05T12:09:47.596Z,24.69
2023-05-05T12:10:48.549Z,51.48
2023-05-05T12:11:48.619Z,49.77
2023-05-05T12:12:48.090Z,38.61
2023-05-05T12:13:47.805Z,48.55
2023-05-05T12:14:47.872Z,56.57
2023-05-05T12:15:47.868Z,39.85
2023-05-05T12:16:47.957Z,47.55
2023-05-05T12:17:47.944Z,52.05
2023-05-05T12:18:48.961Z,42.12
2023-05-05T12:19:49.015Z,39.95
2023-05-05T12:20:47.932Z,63.25
2023-05-05T12:21:47.994Z,41.26
2023-05-05T12:22:47.974Z,80.90
2023-05-05T12:23:49.028Z,72.60
2023-05-05T12:24:48.012Z,85.53
2023-05-05T12:25:48.077Z,92.64
2023-05-05T12:26:49.087Z,114.98
2023-05-05T12:27:49.124Z,125.31
2023-05-05T12:28:49.195Z,112.35
2023-05-05T12:29:49.235Z,136.97
2023-05-05T12:30:49.191Z,146.84
2023-05-05T12:31:48.136Z,144.10
2023-05-05T12:32:48.128Z,147.72
2023-05-05T12:33:48.225Z,151.26
2023-05-05T12:34:48.115Z,151.61
2023-05-05T12:35:49.209Z,152.09
2023-05-05T12:36:48.154Z,152.75
2023-05-05T12:37:49.252Z,152.86
2023-05-05T12:38:49.269Z,154.55
2023-05-05T12:39:49.453Z,153.65
2023-05-05T12:40:48.416Z,156.34
2023-05-05T12:41:48.509Z,155.09
2023-05-05T12:42:49.599Z,159.21
2023-05-05T12:43:48.533Z,154.95
2023-05-05T12:44:48.676Z,157.41
2023-05-05T12:45:48.886Z,157.83
2023-05-05T12:46:48.764Z,159.47
2023-05-05T12:47:49.809Z,160.76
2023-05-05T12:48:48.758Z,161.00
2023-05-05T12:49:48.877Z,162.20
2023-05-05T12:50:48.922Z,163.08
2023-05-05T12:51:48.928Z,165.72
2023-05-05T12:52:49.982Z,163.76
2023-05-05T12:53:50.005Z,164.84
2023-05-05T12:54:49.046Z,165.96
2023-05-05T12:55:48.998Z,165.53
2023-05-05T12:56:49.078Z,166.27
2023-05-05T12:57:50.077Z,166.58
2023-05-05T12:58:49.154Z,166.51
2023-05-05T12:59:49.102Z,165.86
2023-05-05T13:00:49.152Z,167.83
2023-05-05T13:01:49.401Z,167.23
2023-05-05T13:02:49.350Z,166.22
2023-05-05T13:03:49.188Z,166.64
2023-05-05T13:04:49.154Z,168.34
2023-05-05T13:05:50.242Z,167.08
2023-05-05T13:06:50.210Z,167.68
2023-05-05T13:07:50.175Z,167.41
2023-05-05T13:08:49.124Z,167.52
2023-05-05T13:09:50.218Z,167.32
2023-05-05T13:10:49.246Z,167.70
2023-05-05T13:11:50.185Z,169.73
2023-05-05T13:12:49.141Z,168.64
2023-05-05T13:13:49.121Z,168.04
2023-05-05T13:14:49.146Z,167.88
2023-05-05T13:15:49.187Z,167.49
2023-05-05T13:16:49.248Z,167.21
2023-05-05T13:17:49.273Z,167.47
2023-05-05T13:18:49.155Z,167.50
2023-05-05T13:19:50.150Z,167.69
2023-05-05T13:20:49.190Z,167.34
2023-05-05T13:21:50.248Z,167.42
2023-05-05T13:22:49.265Z,165.89
2023-05-05T13:23:49.315Z,165.92
2023-05-05T13:24:52.403Z,166.73
2023-05-05T13:25:50.377Z,168.50
2023-05-05T13:26:49.304Z,166.76
2023-05-05T13:27:49.297Z,168.19
2023-05-05T13:28:50.316Z,167.92
2023-05-05T13:29:49.329Z,167.81
2023-05-05T13:30:49.226Z,166.68
2023-05-05T13:31:50.285Z,167.22
2023-05-05T13:32:49.246Z,167.63
2023-05-05T13:33:50.335Z,167.00
2023-05-05T13:34:50.207Z,166.93
2023-05-05T13:35:49.309Z,167.44
2023-05-05T13:36:50.016Z,166.65
2023-05-05T13:37:49.181Z,166.15
2023-05-05T13:38:50.179Z,167.19
2023-05-05T13:39:50.148Z,166.61
2023-05-05T13:40:50.168Z,166.58
2023-05-05T13:41:50.214Z,167.76
2023-05-05T13:42:49.139Z,166.92
2023-05-05T13:43:49.194Z,166.10
2023-05-05T13:44:49.145Z,166.13
2023-05-05T13:45:50.229Z,166.67
2023-05-05T13:46:50.214Z,165.34
2023-05-05T13:47:49.148Z,166.76
2023-05-05T13:48:49.138Z,167.41
2023-05-05T13:49:49.406Z,166.42
2023-05-05T13:50:49.314Z,166.86
2023-05-05T13:51:49.285Z,166.32
2023-05-05T13:52:49.356Z,168.27
2023-05-05T13:53:49.433Z,167.23
2023-05-05T13:54:50.459Z,166.65
2023-05-05T13:55:50.535Z,168.52
2023-05-05T13:56:50.578Z,166.85
2023-05-05T13:57:50.735Z,167.87
2023-05-05T13:58:49.759Z,167.18
2023-05-05T13:59:50.419Z,166.36
2023-05-05T14:00:49.914Z,167.64
2023-05-05T14:01:49.924Z,165.85
2023-05-05T14:02:49.994Z,165.96
2023-05-05T14:03:51.148Z,166.64
2023-05-05T14:04:50.104Z,168.72
2023-05-05T14:05:51.295Z,167.23
2023-05-05T14:06:51.173Z,166.01
2023-05-05T14:07:51.256Z,166.67
2023-05-05T14:08:50.305Z,166.64
2023-05-05T14:09:50.348Z,165.21
2023-05-05T14:10:52.088Z,166.13
2023-05-05T14:11:50.401Z,166.78
2023-05-05T14:12:50.433Z,167.00
2023-05-05T14:13:51.507Z,166.38
2023-05-05T14:14:50.503Z,166.36
2023-05-05T14:15:50.545Z,165.66
2023-05-05T14:16:51.656Z,166.72
2023-05-05T14:17:51.821Z,165.92
2023-05-05T14:18:50.770Z,165.39
2023-05-05T14:19:50.744Z,163.89
2023-05-05T14:20:50.891Z,165.84
2023-05-05T14:21:50.890Z,164.20
2023-05-05T14:22:51.918Z,163.62
2023-05-05T14:23:50.933Z,163.12
2023-05-05T14:24:50.914Z,166.13
2023-05-05T14:25:50.951Z,165.66
2023-05-05T14:26:51.056Z,164.04
2023-05-05T14:27:51.092Z,165.62
2023-05-05T14:28:52.195Z,165.25
2023-05-05T14:29:52.164Z,165.61
2023-05-05T14:30:51.237Z,164.41
2023-05-05T14:31:51.249Z,165.06
2023-05-05T14:32:52.350Z,164.84
2023-05-05T14:33:51.333Z,160.58
2023-05-05T14:34:51.313Z,163.57
2023-05-05T14:35:52.353Z,162.00
2023-05-05T14:36:51.471Z,162.85
2023-05-05T14:37:51.431Z,163.54
2023-05-05T14:38:51.510Z,162.67
2023-05-05T14:39:51.544Z,159.93
2023-05-05T14:40:51.635Z,163.32
2023-05-05T14:41:51.608Z,161.70
2023-05-05T14:42:51.609Z,162.42
2023-05-05T14:43:52.692Z,163.53
2023-05-05T14:44:51.778Z,161.72
2023-05-05T14:45:52.810Z,164.80
2023-05-05T14:46:51.803Z,161.54
2023-05-05T14:47:51.815Z,163.30
2023-05-05T14:48:51.866Z,161.78
2023-05-05T14:49:51.883Z,163.70
2023-05-05T14:50:52.878Z,159.06
2023-05-05T14:51:51.966Z,161.34
2023-05-05T14:52:52.054Z,162.51
2023-05-05T14:53:52.306Z,163.14
2023-05-05T14:54:52.086Z,162.91
2023-05-05T14:55:52.212Z,161.42
2023-05-05T14:56:52.096Z,159.36
2023-05-05T14:57:52.253Z,160.38
2023-05-05T14:58:52.169Z,161.62
2023-05-05T14:59:53.226Z,162.30
2023-05-05T15:00:52.385Z,161.43
2023-05-05T15:01:52.420Z,158.56
2023-05-05T15:02:52.371Z,160.56
2023-05-05T15:03:52.598Z,159.74
2023-05-05T15:04:52.500Z,161.39
2023-05-05T15:05:52.579Z,160.15
2023-05-05T15:06:53.560Z,159.61
2023-05-05T15:07:53.514Z,159.16
2023-05-05T15:08:52.658Z,161.19
2023-05-05T15:09:52.753Z,159.71
2023-05-05T15:10:53.708Z,158.22
2023-05-05T15:11:52.710Z,160.56
2023-05-05T15:12:52.776Z,160.33
2023-05-05T15:13:52.798Z,159.93
2023-05-05T15:14:52.837Z,157.56
2023-05-05T15:15:52.861Z,159.51
2023-05-05T15:16:53.875Z,159.84
2023-05-05T15:17:52.960Z,159.86
2023-05-05T15:18:52.943Z,159.41
2023-05-05T15:19:53.999Z,157.68
2023-05-05T15:20:53.008Z,158.79
2023-05-05T15:21:54.188Z,159.40
2023-05-05T15:22:54.154Z,160.33
2023-05-05T15:23:53.165Z,159.13
2023-05-05T15:24:53.244Z,158.29
2023-05-05T15:25:53.440Z,158.90
2023-05-05T15:26:53.296Z,159.68
2023-05-05T15:27:53.338Z,159.41
2023-05-05T15:28:53.378Z,157.58
2023-05-05T15:29:53.457Z,157.21
